sensor_id;sensor_type;location;lat;lon;timestamp;temperature;humidity
19862;DHT22;10093;48.148;8.542;2023-09-08T00:02:27;14.30;99.90
19862;DHT22;10093;48.148;8.542;2023-09-08T00:04:53;14.20;99.90
19862;DHT22;10093;48.148;8.542;2023-09-08T00:07:19;14.30;99.90
19862;DHT22;10093;48.148;8.542;2023-09-08T00:09:45;14.30;99.90
19862;DHT22;10093;48.148;8.542;2023-09-08T00:12:11;14.20;99.90
19862;DHT22;10093;48.148;8.542;2023-09-08T00:14:37;14.20;99.90
19862;DHT22;10093;48.148;8.542;2023-09-08T00:17:02;14.10;99.90
19862;DHT22;10093;48.148;8.542;2023-09-08T00:19:28;14.10;99.90
19862;DHT22;10093;48.148;8.542;2023-09-08T00:21:53;14.00;99.90
19862;DHT22;10093;48.148;8.542;2023-09-08T00:24:19;13.90;99.90
19862;DHT22;10093;48.148;8.542;2023-09-08T00:26:45;13.70;99.90
19862;DHT22;10093;48.148;8.542;2023-09-08T00:29:11;13.80;99.90
19862;DHT22;10093;48.148;8.542;2023-09-08T00:31:36;13.80;99.90
19862;DHT22;10093;48.148;8.542;2023-09-08T00:34:02;13.90;99.90
19862;DHT22;10093;48.148;8.542;2023-09-08T00:36:28;13.90;99.90
19862;DHT22;10093;48.148;8.542;2023-09-08T00:38:53;13.90;99.90
19862;DHT22;10093;48.148;8.542;2023-09-08T00:41:19;13.90;99.90
19862;DHT22;10093;48.148;8.542;2023-09-08T00:43:44;13.70;99.90
19862;DHT22;10093;48.148;8.542;2023-09-08T00:46:10;13.70;99.90
19862;DHT22;10093;48.148;8.542;2023-09-08T00:48:37;13.80;99.90
19862;DHT22;10093;48.148;8.542;2023-09-08T00:51:03;13.70;99.90
19862;DHT22;10093;48.148;8.542;2023-09-08T00:53:31;13.70;99.90
19862;DHT22;10093;48.148;8.542;2023-09-08T00:55:56;13.70;99.90
19862;DHT22;10093;48.148;8.542;2023-09-08T00:58:24;13.70;99.90
19862;DHT22;10093;48.148;8.542;2023-09-08T01:00:49;13.60;99.90
19862;DHT22;10093;48.148;8.542;2023-09-08T01:03:15;13.60;99.90
19862;DHT22;10093;48.148;8.542;2023-09-08T01:05:40;13.50;99.90
19862;DHT22;10093;48.148;8.542;2023-09-08T01:08:07;13.50;99.90
19862;DHT22;10093;48.148;8.542;2023-09-08T01:10:33;13.40;99.90
19862;DHT22;10093;48.148;8.542;2023-09-08T01:12:59;13.50;99.90
19862;DHT22;10093;48.148;8.542;2023-09-08T01:15:24;13.40;99.90
19862;DHT22;10093;48.148;8.542;2023-09-08T01:17:50;13.30;99.90
19862;DHT22;10093;48.148;8.542;2023-09-08T01:20:25;13.40;99.90
19862;DHT22;10093;48.148;8.542;2023-09-08T01:26:08;13.30;99.90
19862;DHT22;10093;48.148;8.542;2023-09-08T01:28:34;13.10;99.90
19862;DHT22;10093;48.148;8.542;2023-09-08T01:31:01;13.10;99.90
19862;DHT22;10093;48.148;8.542;2023-09-08T01:33:26;13.20;99.90
19862;DHT22;10093;48.148;8.542;2023-09-08T01:35:52;13.20;99.90
19862;DHT22;10093;48.148;8.542;2023-09-08T01:38:18;13.20;99.90
19862;DHT22;10093;48.148;8.542;2023-09-08T01:40:44;13.00;99.90
19862;DHT22;10093;48.148;8.542;2023-09-08T01:43:09;13.00;99.90
19862;DHT22;10093;48.148;8.542;2023-09-08T01:45:35;12.90;99.90
19862;DHT22;10093;48.148;8.542;2023-09-08T01:48:01;12.90;99.90
19862;DHT22;10093;48.148;8.542;2023-09-08T01:50:26;13.00;99.90
19862;DHT22;10093;48.148;8.542;2023-09-08T01:52:52;12.90;99.90
19862;DHT22;10093;48.148;8.542;2023-09-08T01:55:17;12.90;99.90
19862;DHT22;10093;48.148;8.542;2023-09-08T01:57:44;13.10;99.90
19862;DHT22;10093;48.148;8.542;2023-09-08T02:00:10;13.20;99.90
19862;DHT22;10093;48.148;8.542;2023-09-08T02:02:36;13.20;99.90
19862;DHT22;10093;48.148;8.542;2023-09-08T02:05:02;13.10;99.90
19862;DHT22;10093;48.148;8.542;2023-09-08T02:07:27;13.10;99.90
19862;DHT22;10093;48.148;8.542;2023-09-08T02:09:53;13.10;99.90
19862;DHT22;10093;48.148;8.542;2023-09-08T02:12:18;13.10;99.90
19862;DHT22;10093;48.148;8.542;2023-09-08T02:14:44;13.00;99.90
19862;DHT22;10093;48.148;8.542;2023-09-08T02:17:10;13.00;99.90
19862;DHT22;10093;48.148;8.542;2023-09-08T02:19:35;13.00;99.90
19862;DHT22;10093;48.148;8.542;2023-09-08T02:22:01;12.80;99.90
19862;DHT22;10093;48.148;8.542;2023-09-08T02:24:27;12.70;99.90
19862;DHT22;10093;48.148;8.542;2023-09-08T02:26:54;12.80;99.90
19862;DHT22;10093;48.148;8.542;2023-09-08T02:29:19;13.00;99.90
19862;DHT22;10093;48.148;8.542;2023-09-08T02:31:45;12.70;99.90
19862;DHT22;10093;48.148;8.542;2023-09-08T02:34:11;12.80;99.90
19862;DHT22;10093;48.148;8.542;2023-09-08T02:36:38;12.90;99.90
19862;DHT22;10093;48.148;8.542;2023-09-08T02:39:04;12.90;99.90
19862;DHT22;10093;48.148;8.542;2023-09-08T02:41:29;12.80;99.90
19862;DHT22;10093;48.148;8.542;2023-09-08T02:43:56;12.70;99.90
19862;DHT22;10093;48.148;8.542;2023-09-08T02:46:22;12.70;99.90
19862;DHT22;10093;48.148;8.542;2023-09-08T02:48:47;12.70;99.90
19862;DHT22;10093;48.148;8.542;2023-09-08T02:51:13;12.60;99.90
19862;DHT22;10093;48.148;8.542;2023-09-08T02:53:38;12.60;99.90
19862;DHT22;10093;48.148;8.542;2023-09-08T02:56:04;12.60;99.90
19862;DHT22;10093;48.148;8.542;2023-09-08T02:58:31;12.50;99.90
19862;DHT22;10093;48.148;8.542;2023-09-08T03:01:10;12.50;99.90
19862;DHT22;10093;48.148;8.542;2023-09-08T03:03:36;12.50;99.90
19862;DHT22;10093;48.148;8.542;2023-09-08T03:06:02;12.60;99.90
19862;DHT22;10093;48.148;8.542;2023-09-08T03:08:28;12.60;99.90
19862;DHT22;10093;48.148;8.542;2023-09-08T03:10:58;12.60;99.90
19862;DHT22;10093;48.148;8.542;2023-09-08T03:13:24;12.50;99.90
19862;DHT22;10093;48.148;8.542;2023-09-08T03:15:51;12.50;99.90
19862;DHT22;10093;48.148;8.542;2023-09-08T03:18:17;12.60;99.90
19862;DHT22;10093;48.148;8.542;2023-09-08T03:20:43;12.50;99.90
19862;DHT22;10093;48.148;8.542;2023-09-08T03:23:09;12.50;99.90
19862;DHT22;10093;48.148;8.542;2023-09-08T03:25:34;12.50;99.90
19862;DHT22;10093;48.148;8.542;2023-09-08T03:28:00;12.50;99.90
19862;DHT22;10093;48.148;8.542;2023-09-08T03:30:25;12.40;99.90
19862;DHT22;10093;48.148;8.542;2023-09-08T03:32:51;12.30;99.90
19862;DHT22;10093;48.148;8.542;2023-09-08T03:35:16;12.20;99.90
19862;DHT22;10093;48.148;8.542;2023-09-08T03:37:42;12.30;99.90
19862;DHT22;10093;48.148;8.542;2023-09-08T03:40:08;12.30;99.90
19862;DHT22;10093;48.148;8.542;2023-09-08T03:42:34;12.40;99.90
19862;DHT22;10093;48.148;8.542;2023-09-08T03:45:03;12.50;99.90
19862;DHT22;10093;48.148;8.542;2023-09-08T03:47:28;12.60;99.90
19862;DHT22;10093;48.148;8.542;2023-09-08T03:49:54;12.50;99.90
19862;DHT22;10093;48.148;8.542;2023-09-08T03:52:20;12.30;99.90
19862;DHT22;10093;48.148;8.542;2023-09-08T03:54:45;12.20;99.90
19862;DHT22;10093;48.148;8.542;2023-09-08T03:57:11;12.30;99.90
19862;DHT22;10093;48.148;8.542;2023-09-08T03:59:37;12.40;99.90
19862;DHT22;10093;48.148;8.542;2023-09-08T04:02:03;12.30;99.90
19862;DHT22;10093;48.148;8.542;2023-09-08T04:04:28;12.50;99.90
19862;DHT22;10093;48.148;8.542;2023-09-08T04:06:54;12.50;99.90
19862;DHT22;10093;48.148;8.542;2023-09-08T04:09:19;12.40;99.90
19862;DHT22;10093;48.148;8.542;2023-09-08T04:11:45;12.40;99.90
19862;DHT22;10093;48.148;8.542;2023-09-08T04:14:11;12.20;99.90
19862;DHT22;10093;48.148;8.542;2023-09-08T04:16:36;12.10;99.90
19862;DHT22;10093;48.148;8.542;2023-09-08T04:19:02;11.90;99.90
19862;DHT22;10093;48.148;8.542;2023-09-08T04:21:28;11.70;99.90
19862;DHT22;10093;48.148;8.542;2023-09-08T04:23:53;11.70;99.90
19862;DHT22;10093;48.148;8.542;2023-09-08T04:26:19;11.80;99.90
19862;DHT22;10093;48.148;8.542;2023-09-08T04:28:44;11.90;99.90
19862;DHT22;10093;48.148;8.542;2023-09-08T04:31:10;12.00;99.90
19862;DHT22;10093;48.148;8.542;2023-09-08T04:33:35;11.90;99.90
19862;DHT22;10093;48.148;8.542;2023-09-08T04:36:01;11.90;99.90
19862;DHT22;10093;48.148;8.542;2023-09-08T04:38:27;11.90;99.90
19862;DHT22;10093;48.148;8.542;2023-09-08T04:40:52;12.10;99.90
19862;DHT22;10093;48.148;8.542;2023-09-08T04:43:20;12.10;99.90
19862;DHT22;10093;48.148;8.542;2023-09-08T04:45:46;12.10;99.90
19862;DHT22;10093;48.148;8.542;2023-09-08T04:48:11;12.20;99.90
19862;DHT22;10093;48.148;8.542;2023-09-08T04:50:37;12.00;99.90
19862;DHT22;10093;48.148;8.542;2023-09-08T04:53:03;12.20;99.90
19862;DHT22;10093;48.148;8.542;2023-09-08T04:55:29;12.20;99.90
19862;DHT22;10093;48.148;8.542;2023-09-08T04:57:54;12.00;99.90
19862;DHT22;10093;48.148;8.542;2023-09-08T05:00:20;12.10;99.90
19862;DHT22;10093;48.148;8.542;2023-09-08T05:02:46;12.10;99.90
19862;DHT22;10093;48.148;8.542;2023-09-08T05:05:11;12.00;99.90
19862;DHT22;10093;48.148;8.542;2023-09-08T05:07:37;11.80;99.90
19862;DHT22;10093;48.148;8.542;2023-09-08T05:10:03;11.80;99.90
19862;DHT22;10093;48.148;8.542;2023-09-08T05:12:28;11.80;99.90
19862;DHT22;10093;48.148;8.542;2023-09-08T05:14:54;11.80;99.90
19862;DHT22;10093;48.148;8.542;2023-09-08T05:17:25;11.80;99.90
19862;DHT22;10093;48.148;8.542;2023-09-08T05:19:51;12.00;99.90
19862;DHT22;10093;48.148;8.542;2023-09-08T05:22:17;12.00;99.90
19862;DHT22;10093;48.148;8.542;2023-09-08T05:24:42;11.90;99.90
19862;DHT22;10093;48.148;8.542;2023-09-08T05:27:08;12.00;99.90
19862;DHT22;10093;48.148;8.542;2023-09-08T05:29:34;12.00;99.90
19862;DHT22;10093;48.148;8.542;2023-09-08T05:31:59;12.00;99.90
19862;DHT22;10093;48.148;8.542;2023-09-08T05:34:25;12.20;99.90
19862;DHT22;10093;48.148;8.542;2023-09-08T05:36:50;13.10;99.90
19862;DHT22;10093;48.148;8.542;2023-09-08T05:39:16;14.10;99.90
19862;DHT22;10093;48.148;8.542;2023-09-08T05:41:44;14.90;99.90
19862;DHT22;10093;48.148;8.542;2023-09-08T05:44:09;15.40;99.90
19862;DHT22;10093;48.148;8.542;2023-09-08T05:46:35;16.20;99.90
19862;DHT22;10093;48.148;8.542;2023-09-08T05:49:01;17.00;99.90
19862;DHT22;10093;48.148;8.542;2023-09-08T05:51:26;17.80;99.90
19862;DHT22;10093;48.148;8.542;2023-09-08T05:53:52;19.10;99.90
19862;DHT22;10093;48.148;8.542;2023-09-08T05:56:19;20.10;99.90
19862;DHT22;10093;48.148;8.542;2023-09-08T05:58:45;21.20;99.90
19862;DHT22;10093;48.148;8.542;2023-09-08T06:01:10;22.20;99.90
19862;DHT22;10093;48.148;8.542;2023-09-08T06:03:36;23.20;99.90
19862;DHT22;10093;48.148;8.542;2023-09-08T06:06:02;23.90;99.90
19862;DHT22;10093;48.148;8.542;2023-09-08T06:08:27;24.60;99.90
19862;DHT22;10093;48.148;8.542;2023-09-08T06:10:53;25.20;99.90
19862;DHT22;10093;48.148;8.542;2023-09-08T06:13:18;25.80;99.90
19862;DHT22;10093;48.148;8.542;2023-09-08T06:15:44;26.50;99.90
19862;DHT22;10093;48.148;8.542;2023-09-08T06:18:11;27.10;99.90
19862;DHT22;10093;48.148;8.542;2023-09-08T06:20:36;27.70;99.90
19862;DHT22;10093;48.148;8.542;2023-09-08T06:23:02;28.00;99.90
19862;DHT22;10093;48.148;8.542;2023-09-08T06:25:27;28.30;99.90
19862;DHT22;10093;48.148;8.542;2023-09-08T06:27:56;28.70;99.90
19862;DHT22;10093;48.148;8.542;2023-09-08T06:30:21;29.40;99.90
19862;DHT22;10093;48.148;8.542;2023-09-08T06:32:47;29.00;99.90
19862;DHT22;10093;48.148;8.542;2023-09-08T06:35:13;29.50;99.90
19862;DHT22;10093;48.148;8.542;2023-09-08T06:37:39;30.00;99.90
19862;DHT22;10093;48.148;8.542;2023-09-08T06:40:05;30.70;99.90
19862;DHT22;10093;48.148;8.542;2023-09-08T06:42:31;31.40;99.90
19862;DHT22;10093;48.148;8.542;2023-09-08T06:44:58;31.50;99.90
19862;DHT22;10093;48.148;8.542;2023-09-08T06:47:24;31.80;99.90
19862;DHT22;10093;48.148;8.542;2023-09-08T06:49:50;31.80;99.90
19862;DHT22;10093;48.148;8.542;2023-09-08T06:52:17;31.60;99.90
19862;DHT22;10093;48.148;8.542;2023-09-08T06:54:42;31.90;99.90
19862;DHT22;10093;48.148;8.542;2023-09-08T06:57:08;32.40;99.90
19862;DHT22;10093;48.148;8.542;2023-09-08T06:59:33;31.70;99.90
19862;DHT22;10093;48.148;8.542;2023-09-08T07:01:59;32.40;99.90
19862;DHT22;10093;48.148;8.542;2023-09-08T07:04:25;31.70;99.90
19862;DHT22;10093;48.148;8.542;2023-09-08T07:06:50;32.40;99.90
19862;DHT22;10093;48.148;8.542;2023-09-08T07:09:17;33.50;99.90
19862;DHT22;10093;48.148;8.542;2023-09-08T07:11:42;34.30;99.90
19862;DHT22;10093;48.148;8.542;2023-09-08T07:14:08;34.90;99.90
19862;DHT22;10093;48.148;8.542;2023-09-08T07:16:34;35.00;99.90
19862;DHT22;10093;48.148;8.542;2023-09-08T07:19:00;34.90;99.90
19862;DHT22;10093;48.148;8.542;2023-09-08T07:21:26;35.10;99.90
19862;DHT22;10093;48.148;8.542;2023-09-08T07:23:52;34.80;99.90
19862;DHT22;10093;48.148;8.542;2023-09-08T07:26:19;35.20;99.90
19862;DHT22;10093;48.148;8.542;2023-09-08T07:28:45;35.20;99.90
19862;DHT22;10093;48.148;8.542;2023-09-08T07:31:11;35.20;99.90
19862;DHT22;10093;48.148;8.542;2023-09-08T07:33:37;35.60;99.90
19862;DHT22;10093;48.148;8.542;2023-09-08T07:36:07;35.80;99.90
19862;DHT22;10093;48.148;8.542;2023-09-08T07:38:33;34.60;99.90
19862;DHT22;10093;48.148;8.542;2023-09-08T07:41:00;35.10;99.90
19862;DHT22;10093;48.148;8.542;2023-09-08T07:43:27;35.90;99.90
19862;DHT22;10093;48.148;8.542;2023-09-08T07:45:52;36.20;99.90
19862;DHT22;10093;48.148;8.542;2023-09-08T07:48:18;36.00;99.90
19862;DHT22;10093;48.148;8.542;2023-09-08T07:50:44;36.90;99.90
19862;DHT22;10093;48.148;8.542;2023-09-08T07:53:09;37.60;99.90
19862;DHT22;10093;48.148;8.542;2023-09-08T07:55:35;37.40;99.90
19862;DHT22;10093;48.148;8.542;2023-09-08T07:58:01;37.40;99.90
19862;DHT22;10093;48.148;8.542;2023-09-08T08:00:29;37.70;99.90
19862;DHT22;10093;48.148;8.542;2023-09-08T08:02:56;37.70;99.90
19862;DHT22;10093;48.148;8.542;2023-09-08T08:05:22;37.50;99.90
19862;DHT22;10093;48.148;8.542;2023-09-08T08:07:48;36.30;99.90
19862;DHT22;10093;48.148;8.542;2023-09-08T08:10:14;36.70;99.90
19862;DHT22;10093;48.148;8.542;2023-09-08T08:12:41;36.60;99.90
19862;DHT22;10093;48.148;8.542;2023-09-08T08:15:07;37.20;99.90
19862;DHT22;10093;48.148;8.542;2023-09-08T08:17:35;37.50;99.90
19862;DHT22;10093;48.148;8.542;2023-09-08T08:20:02;38.00;99.90
19862;DHT22;10093;48.148;8.542;2023-09-08T08:22:38;37.70;99.90
19862;DHT22;10093;48.148;8.542;2023-09-08T08:25:04;38.70;99.90
19862;DHT22;10093;48.148;8.542;2023-09-08T08:27:30;39.20;99.90
19862;DHT22;10093;48.148;8.542;2023-09-08T08:29:59;37.90;99.90
19862;DHT22;10093;48.148;8.542;2023-09-08T08:32:26;38.20;99.90
19862;DHT22;10093;48.148;8.542;2023-09-08T08:34:52;36.40;99.90
19862;DHT22;10093;48.148;8.542;2023-09-08T08:37:18;36.90;99.90
19862;DHT22;10093;48.148;8.542;2023-09-08T08:39:43;38.50;99.90
19862;DHT22;10093;48.148;8.542;2023-09-08T08:42:10;37.70;99.90
19862;DHT22;10093;48.148;8.542;2023-09-08T08:44:38;38.40;99.90
19862;DHT22;10093;48.148;8.542;2023-09-08T08:47:06;37.70;99.90
19862;DHT22;10093;48.148;8.542;2023-09-08T08:49:33;37.90;99.90
19862;DHT22;10093;48.148;8.542;2023-09-08T08:51:59;36.10;99.90
19862;DHT22;10093;48.148;8.542;2023-09-08T08:54:25;35.40;99.90
19862;DHT22;10093;48.148;8.542;2023-09-08T08:56:51;34.70;99.90
19862;DHT22;10093;48.148;8.542;2023-09-08T08:59:18;32.60;99.90
19862;DHT22;10093;48.148;8.542;2023-09-08T09:01:44;33.40;99.90
19862;DHT22;10093;48.148;8.542;2023-09-08T09:04:10;36.10;99.90
19862;DHT22;10093;48.148;8.542;2023-09-08T09:06:37;36.90;99.90
19862;DHT22;10093;48.148;8.542;2023-09-08T09:09:03;37.80;99.90
19862;DHT22;10093;48.148;8.542;2023-09-08T09:11:30;34.20;99.90
19862;DHT22;10093;48.148;8.542;2023-09-08T09:13:57;33.60;99.90
19862;DHT22;10093;48.148;8.542;2023-09-08T09:16:23;34.00;99.90
19862;DHT22;10093;48.148;8.542;2023-09-08T09:18:57;33.10;99.90
19862;DHT22;10093;48.148;8.542;2023-09-08T09:21:23;33.60;99.90
19862;DHT22;10093;48.148;8.542;2023-09-08T09:23:49;33.80;99.90
19862;DHT22;10093;48.148;8.542;2023-09-08T09:26:25;34.20;99.90
19862;DHT22;10093;48.148;8.542;2023-09-08T09:28:51;34.70;99.90
19862;DHT22;10093;48.148;8.542;2023-09-08T09:31:22;33.40;99.90
19862;DHT22;10093;48.148;8.542;2023-09-08T09:33:50;33.30;99.90
19862;DHT22;10093;48.148;8.542;2023-09-08T09:36:26;35.10;99.90
19862;DHT22;10093;48.148;8.542;2023-09-08T09:38:51;35.30;99.90
19862;DHT22;10093;48.148;8.542;2023-09-08T09:41:17;35.80;99.90
19862;DHT22;10093;48.148;8.542;2023-09-08T09:43:42;35.80;99.90
19862;DHT22;10093;48.148;8.542;2023-09-08T09:46:09;36.50;99.90
19862;DHT22;10093;48.148;8.542;2023-09-08T09:48:35;37.80;99.90
19862;DHT22;10093;48.148;8.542;2023-09-08T09:51:15;37.20;99.90
19862;DHT22;10093;48.148;8.542;2023-09-08T09:53:42;37.60;99.90
19862;DHT22;10093;48.148;8.542;2023-09-08T09:56:09;36.30;99.90
19862;DHT22;10093;48.148;8.542;2023-09-08T09:58:35;35.00;99.90
19862;DHT22;10093;48.148;8.542;2023-09-08T10:01:03;33.40;99.90
19862;DHT22;10093;48.148;8.542;2023-09-08T10:03:29;31.40;99.90
19862;DHT22;10093;48.148;8.542;2023-09-08T10:05:56;33.20;99.90
19862;DHT22;10093;48.148;8.542;2023-09-08T10:08:22;33.00;99.90
19862;DHT22;10093;48.148;8.542;2023-09-08T10:10:48;30.50;99.90
19862;DHT22;10093;48.148;8.542;2023-09-08T10:13:20;31.70;99.90
19862;DHT22;10093;48.148;8.542;2023-09-08T10:15:49;34.70;99.90
19862;DHT22;10093;48.148;8.542;2023-09-08T10:18:16;36.30;99.90
19862;DHT22;10093;48.148;8.542;2023-09-08T10:20:45;37.30;99.90
19862;DHT22;10093;48.148;8.542;2023-09-08T10:23:36;38.20;99.90
19862;DHT22;10093;48.148;8.542;2023-09-08T10:26:09;38.80;99.90
19862;DHT22;10093;48.148;8.542;2023-09-08T10:28:36;38.50;99.90
19862;DHT22;10093;48.148;8.542;2023-09-08T10:31:02;39.60;99.90
19862;DHT22;10093;48.148;8.542;2023-09-08T10:33:29;39.20;99.90
19862;DHT22;10093;48.148;8.542;2023-09-08T10:35:57;38.70;99.90
19862;DHT22;10093;48.148;8.542;2023-09-08T10:38:24;38.20;99.90
19862;DHT22;10093;48.148;8.542;2023-09-08T10:40:51;38.00;99.90
19862;DHT22;10093;48.148;8.542;2023-09-08T10:43:18;38.50;99.90
19862;DHT22;10093;48.148;8.542;2023-09-08T10:45:43;39.00;99.90
19862;DHT22;10093;48.148;8.542;2023-09-08T10:48:10;39.40;99.90
19862;DHT22;10093;48.148;8.542;2023-09-08T10:50:41;39.30;99.90
19862;DHT22;10093;48.148;8.542;2023-09-08T10:53:15;36.70;99.90
19862;DHT22;10093;48.148;8.542;2023-09-08T10:55:42;36.10;99.90
19862;DHT22;10093;48.148;8.542;2023-09-08T10:58:11;36.80;99.90
19862;DHT22;10093;48.148;8.542;2023-09-08T11:00:51;36.00;99.90
19862;DHT22;10093;48.148;8.542;2023-09-08T11:03:27;34.20;99.90
19862;DHT22;10093;48.148;8.542;2023-09-08T11:05:53;32.50;99.90
19862;DHT22;10093;48.148;8.542;2023-09-08T11:08:19;31.70;99.90
19862;DHT22;10093;48.148;8.542;2023-09-08T11:10:45;31.70;99.90
19862;DHT22;10093;48.148;8.542;2023-09-08T11:13:10;30.60;99.90
19862;DHT22;10093;48.148;8.542;2023-09-08T11:15:37;32.00;99.90
19862;DHT22;10093;48.148;8.542;2023-09-08T11:18:06;32.10;99.90
19862;DHT22;10093;48.148;8.542;2023-09-08T11:20:32;32.90;99.90
19862;DHT22;10093;48.148;8.542;2023-09-08T11:22:58;33.40;99.90
19862;DHT22;10093;48.148;8.542;2023-09-08T11:25:23;33.00;99.90
19862;DHT22;10093;48.148;8.542;2023-09-08T11:27:49;32.60;99.90
19862;DHT22;10093;48.148;8.542;2023-09-08T11:30:15;32.60;99.90
19862;DHT22;10093;48.148;8.542;2023-09-08T11:32:41;33.90;99.90
19862;DHT22;10093;48.148;8.542;2023-09-08T11:35:09;32.10;99.90
19862;DHT22;10093;48.148;8.542;2023-09-08T11:37:41;31.10;99.90
19862;DHT22;10093;48.148;8.542;2023-09-08T11:40:10;31.60;99.90
19862;DHT22;10093;48.148;8.542;2023-09-08T11:42:40;31.30;99.90
19862;DHT22;10093;48.148;8.542;2023-09-08T11:45:13;32.10;99.90
19862;DHT22;10093;48.148;8.542;2023-09-08T11:47:42;31.70;99.90
19862;DHT22;10093;48.148;8.542;2023-09-08T11:50:12;30.60;99.90
19862;DHT22;10093;48.148;8.542;2023-09-08T11:52:44;30.00;99.90
19862;DHT22;10093;48.148;8.542;2023-09-08T11:55:10;31.20;99.90
19862;DHT22;10093;48.148;8.542;2023-09-08T11:57:37;32.30;99.90
19862;DHT22;10093;48.148;8.542;2023-09-08T12:00:03;31.90;99.90
19862;DHT22;10093;48.148;8.542;2023-09-08T12:02:34;32.40;99.90
19862;DHT22;10093;48.148;8.542;2023-09-08T12:05:02;33.60;99.90
19862;DHT22;10093;48.148;8.542;2023-09-08T12:07:28;34.40;99.90
19862;DHT22;10093;48.148;8.542;2023-09-08T12:09:54;33.80;99.90
19862;DHT22;10093;48.148;8.542;2023-09-08T12:12:47;33.00;99.90
19862;DHT22;10093;48.148;8.542;2023-09-08T12:15:36;32.60;99.90
19862;DHT22;10093;48.148;8.542;2023-09-08T12:18:06;33.00;99.90
19862;DHT22;10093;48.148;8.542;2023-09-08T12:20:33;34.10;99.90
19862;DHT22;10093;48.148;8.542;2023-09-08T12:23:02;34.40;99.90
19862;DHT22;10093;48.148;8.542;2023-09-08T12:25:28;33.90;99.90
19862;DHT22;10093;48.148;8.542;2023-09-08T12:27:54;33.70;99.90
19862;DHT22;10093;48.148;8.542;2023-09-08T12:30:21;34.90;99.90
19862;DHT22;10093;48.148;8.542;2023-09-08T12:32:50;33.70;99.90
19862;DHT22;10093;48.148;8.542;2023-09-08T12:35:21;33.90;99.90
19862;DHT22;10093;48.148;8.542;2023-09-08T12:37:56;31.60;99.90
19862;DHT22;10093;48.148;8.542;2023-09-08T12:40:22;33.20;99.90
19862;DHT22;10093;48.148;8.542;2023-09-08T12:42:48;34.30;99.90
19862;DHT22;10093;48.148;8.542;2023-09-08T12:45:13;35.30;99.90
19862;DHT22;10093;48.148;8.542;2023-09-08T12:47:39;36.10;99.90
19862;DHT22;10093;48.148;8.542;2023-09-08T12:50:05;36.80;99.90
19862;DHT22;10093;48.148;8.542;2023-09-08T12:52:31;37.00;99.90
19862;DHT22;10093;48.148;8.542;2023-09-08T12:54:57;35.90;99.90
19862;DHT22;10093;48.148;8.542;2023-09-08T12:57:23;35.40;99.90
19862;DHT22;10093;48.148;8.542;2023-09-08T12:59:48;33.90;99.90
19862;DHT22;10093;48.148;8.542;2023-09-08T13:02:16;32.40;99.90
19862;DHT22;10093;48.148;8.542;2023-09-08T13:04:42;33.90;99.90
19862;DHT22;10093;48.148;8.542;2023-09-08T13:07:14;35.10;99.90
19862;DHT22;10093;48.148;8.542;2023-09-08T13:09:40;34.90;99.90
19862;DHT22;10093;48.148;8.542;2023-09-08T13:12:06;35.30;99.90
19862;DHT22;10093;48.148;8.542;2023-09-08T13:14:31;35.20;99.90
19862;DHT22;10093;48.148;8.542;2023-09-08T13:16:57;34.60;99.90
19862;DHT22;10093;48.148;8.542;2023-09-08T13:19:22;33.60;99.90
19862;DHT22;10093;48.148;8.542;2023-09-08T13:21:48;32.90;99.90
19862;DHT22;10093;48.148;8.542;2023-09-08T13:24:14;32.30;99.90
19862;DHT22;10093;48.148;8.542;2023-09-08T13:26:39;31.30;99.90
19862;DHT22;10093;48.148;8.542;2023-09-08T13:29:05;31.50;99.90
19862;DHT22;10093;48.148;8.542;2023-09-08T13:31:30;31.00;99.90
19862;DHT22;10093;48.148;8.542;2023-09-08T13:33:56;30.80;99.90
19862;DHT22;10093;48.148;8.542;2023-09-08T13:36:22;31.60;99.90
19862;DHT22;10093;48.148;8.542;2023-09-08T13:38:47;31.60;99.90
19862;DHT22;10093;48.148;8.542;2023-09-08T13:41:13;31.40;99.90
19862;DHT22;10093;48.148;8.542;2023-09-08T13:43:38;31.90;99.90
19862;DHT22;10093;48.148;8.542;2023-09-08T13:46:04;32.80;99.90
19862;DHT22;10093;48.148;8.542;2023-09-08T13:48:29;31.50;99.90
19862;DHT22;10093;48.148;8.542;2023-09-08T13:51:00;31.30;99.90
19862;DHT22;10093;48.148;8.542;2023-09-08T13:53:25;31.70;99.90
19862;DHT22;10093;48.148;8.542;2023-09-08T13:55:51;30.00;99.90
19862;DHT22;10093;48.148;8.542;2023-09-08T13:58:17;29.60;99.90
19862;DHT22;10093;48.148;8.542;2023-09-08T14:00:42;29.40;99.90
19862;DHT22;10093;48.148;8.542;2023-09-08T14:03:08;30.00;99.90
19862;DHT22;10093;48.148;8.542;2023-09-08T14:05:33;31.00;99.90
19862;DHT22;10093;48.148;8.542;2023-09-08T14:07:59;31.40;99.90
19862;DHT22;10093;48.148;8.542;2023-09-08T14:10:25;33.40;99.90
19862;DHT22;10093;48.148;8.542;2023-09-08T14:12:50;34.20;99.90
19862;DHT22;10093;48.148;8.542;2023-09-08T14:15:16;32.40;99.90
19862;DHT22;10093;48.148;8.542;2023-09-08T14:17:42;32.70;99.90
19862;DHT22;10093;48.148;8.542;2023-09-08T14:20:08;31.30;99.90
19862;DHT22;10093;48.148;8.542;2023-09-08T14:22:34;31.60;99.90
19862;DHT22;10093;48.148;8.542;2023-09-08T14:25:00;32.90;99.90
19862;DHT22;10093;48.148;8.542;2023-09-08T14:27:26;34.30;99.90
19862;DHT22;10093;48.148;8.542;2023-09-08T14:29:51;33.90;99.90
19862;DHT22;10093;48.148;8.542;2023-09-08T14:32:17;34.90;99.90
19862;DHT22;10093;48.148;8.542;2023-09-08T14:34:43;35.70;99.90
19862;DHT22;10093;48.148;8.542;2023-09-08T14:37:09;36.20;99.90
19862;DHT22;10093;48.148;8.542;2023-09-08T14:39:34;34.10;99.90
19862;DHT22;10093;48.148;8.542;2023-09-08T14:42:00;33.80;99.90
19862;DHT22;10093;48.148;8.542;2023-09-08T14:44:25;32.50;99.90
19862;DHT22;10093;48.148;8.542;2023-09-08T14:46:52;33.00;99.90
19862;DHT22;10093;48.148;8.542;2023-09-08T14:49:18;32.10;99.90
19862;DHT22;10093;48.148;8.542;2023-09-08T14:51:43;31.60;99.90
19862;DHT22;10093;48.148;8.542;2023-09-08T14:54:09;30.50;99.90
19862;DHT22;10093;48.148;8.542;2023-09-08T14:56:35;31.00;99.90
19862;DHT22;10093;48.148;8.542;2023-09-08T14:59:01;30.90;99.90
19862;DHT22;10093;48.148;8.542;2023-09-08T15:01:26;30.30;99.90
19862;DHT22;10093;48.148;8.542;2023-09-08T15:03:52;30.70;99.90
19862;DHT22;10093;48.148;8.542;2023-09-08T15:06:18;31.20;99.90
19862;DHT22;10093;48.148;8.542;2023-09-08T15:08:43;30.80;99.90
19862;DHT22;10093;48.148;8.542;2023-09-08T15:11:11;31.60;99.90
19862;DHT22;10093;48.148;8.542;2023-09-08T15:13:37;31.90;99.90
19862;DHT22;10093;48.148;8.542;2023-09-08T15:16:02;31.90;99.90
19862;DHT22;10093;48.148;8.542;2023-09-08T15:18:29;32.90;99.90
19862;DHT22;10093;48.148;8.542;2023-09-08T15:20:56;33.80;99.90
19862;DHT22;10093;48.148;8.542;2023-09-08T15:23:22;34.30;99.90
19862;DHT22;10093;48.148;8.542;2023-09-08T15:25:55;33.50;99.90
19862;DHT22;10093;48.148;8.542;2023-09-08T15:28:21;33.30;99.90
19862;DHT22;10093;48.148;8.542;2023-09-08T15:30:51;32.50;99.90